Time;durP1;ratioP1;P1;durP2;ratioP2;P2;SDS_P1;SDS_P2;PMS_P1;PMS_P2;Temp;Humidity;BMP_temperature;BMP_pressure;BME280_temperature;BME280_humidity;BME280_pressure;Samples;Min_cycle;Max_cycle;Signal;HPM_P1;HPM_P2
2022/04/14 00:00:19;;;;;;;11.00;5.73;;;4.70;81.00;;;;;;4141611;28;20337;-56
2022/04/14 00:02:20;;;;;;;14.37;5.87;;;4.80;81.20;;;;;;4140945;28;21017;-55
2022/04/14 00:04:21;;;;;;;14.40;5.57;;;4.70;80.70;;;;;;4141309;28;20589;-54
2022/04/14 00:06:22;;;;;;;9.73;5.27;;;4.80;81.00;;;;;;4150980;28;20286;-57
2022/04/14 00:08:24;;;;;;;11.93;5.67;;;4.80;81.30;;;;;;4157045;28;20262;-61
2022/04/14 00:10:25;;;;;;;11.57;5.53;;;4.80;81.50;;;;;;4152524;28;20263;-57
2022/04/14 00:12:26;;;;;;;9.23;4.67;;;4.70;81.70;;;;;;4140454;28;20321;-54
2022/04/14 00:14:27;;;;;;;10.10;4.53;;;4.70;81.60;;;;;;4140676;28;20267;-57
2022/04/14 00:16:28;;;;;;;9.70;4.40;;;4.70;81.80;;;;;;4139641;28;20771;-57
2022/04/14 00:18:29;;;;;;;9.13;4.47;;;4.70;81.60;;;;;;4142526;28;20302;-56
2022/04/14 00:20:31;;;;;;;9.13;5.60;;;4.70;82.30;;;;;;4156621;28;20302;-60
2022/04/14 00:22:33;;;;;;;10.80;5.87;;;4.70;82.20;;;;;;4155478;28;20271;-61
2022/04/14 00:24:34;;;;;;;15.47;7.03;;;4.60;82.40;;;;;;4156398;28;20344;-53
2022/04/14 00:26:35;;;;;;;11.37;6.13;;;4.50;82.80;;;;;;4154454;28;20283;-55
2022/04/14 00:28:36;;;;;;;15.37;6.27;;;4.50;83.40;;;;;;4154342;28;20341;-57
2022/04/14 00:30:38;;;;;;;11.43;5.87;;;4.40;83.50;;;;;;4151368;28;20271;-57
2022/04/14 00:32:39;;;;;;;10.67;5.77;;;4.40;84.20;;;;;;4145775;28;20287;-59
2022/04/14 00:34:41;;;;;;;9.30;5.10;;;4.40;84.40;;;;;;4141903;28;20691;-58
2022/04/14 00:36:42;;;;;;;10.33;4.67;;;4.30;85.60;;;;;;4139962;28;20263;-58
2022/04/14 00:38:43;;;;;;;10.37;4.57;;;4.30;86.10;;;;;;4141736;28;20267;-58
2022/04/14 00:40:45;;;;;;;6.57;3.93;;;4.20;86.00;;;;;;4129449;28;20866;-56
2022/04/14 00:42:46;;;;;;;10.97;5.17;;;4.20;86.20;;;;;;4124698;28;20680;-54
2022/04/14 00:44:47;;;;;;;10.50;5.80;;;4.10;86.60;;;;;;4134140;28;20837;-60
2022/04/14 00:46:48;;;;;;;12.23;5.80;;;4.20;86.50;;;;;;4155682;28;20341;-57
2022/04/14 00:48:51;;;;;;;12.37;5.63;;;4.10;86.60;;;;;;4157636;28;20267;-59
2022/04/14 00:50:52;;;;;;;9.93;5.37;;;4.10;87.10;;;;;;4156451;28;20806;-63
2022/04/14 00:52:54;;;;;;;12.87;5.83;;;4.10;87.50;;;;;;4157288;28;20317;-58
2022/04/14 00:54:55;;;;;;;12.37;5.40;;;4.00;88.00;;;;;;4154559;28;20263;-56
2022/04/14 00:57:02;;;;;;;9.03;5.47;;;4.00;88.60;;;;;;4157088;28;20808;-55
2022/04/14 00:59:04;;;;;;;12.10;5.50;;;4.00;89.10;;;;;;4155054;28;20654;-54
2022/04/14 01:01:05;;;;;;;10.53;4.73;;;3.90;89.30;;;;;;4141837;28;20318;-59
2022/04/14 01:03:07;;;;;;;7.50;4.73;;;4.00;90.00;;;;;;4139612;28;20839;-56
2022/04/14 01:05:09;;;;;;;8.60;3.83;;;4.00;89.80;;;;;;4147140;28;20336;-58
2022/04/14 01:07:10;;;;;;;8.83;4.60;;;4.00;90.00;;;;;;4156097;28;20321;-58
2022/04/14 01:09:19;;;;;;;9.27;4.33;;;4.00;90.00;;;;;;4156612;28;20747;-60
2022/04/14 01:11:20;;;;;;;8.37;4.00;;;4.00;90.20;;;;;;4154468;28;20650;-61
2022/04/14 01:13:21;;;;;;;7.07;3.83;;;4.00;90.20;;;;;;4140115;28;20290;-59
2022/04/14 01:15:22;;;;;;;16.27;6.97;;;4.00;90.20;;;;;;4155113;28;20317;-55
2022/04/14 01:17:24;;;;;;;13.67;7.20;;;3.90;90.70;;;;;;4142838;28;20340;-54
2022/04/14 01:19:26;;;;;;;16.40;7.43;;;3.80;90.90;;;;;;4152243;28;20332;-57
2022/04/14 01:21:33;;;;;;;15.87;7.20;;;3.70;91.20;;;;;;4158315;28;20344;-58
2022/04/14 01:23:44;;;;;;;13.60;7.33;;;3.60;91.70;;;;;;4160972;28;20301;-57
2022/04/14 01:25:45;;;;;;;13.27;6.63;;;3.50;92.50;;;;;;4171904;28;20277;-55
2022/04/14 01:27:46;;;;;;;11.90;6.73;;;3.40;92.50;;;;;;4143560;28;20849;-57
2022/04/14 01:29:51;;;;;;;12.17;6.30;;;3.40;92.60;;;;;;4143930;28;20780;-55
2022/04/14 01:31:54;;;;;;;15.20;6.43;;;3.30;93.00;;;;;;4149803;28;20316;-57
2022/04/14 01:33:56;;;;;;;11.70;6.43;;;3.30;93.20;;;;;;4157060;28;20275;-51
2022/04/14 01:35:57;;;;;;;15.37;6.53;;;3.40;93.30;;;;;;4160365;28;20271;-59
2022/04/14 01:37:58;;;;;;;14.37;7.00;;;3.40;93.30;;;;;;4158547;28;20805;-56
2022/04/14 01:39:59;;;;;;;12.47;6.27;;;3.40;93.40;;;;;;4153226;28;20342;-53
2022/04/14 01:42:00;;;;;;;13.97;6.80;;;3.40;93.60;;;;;;4150427;28;21218;-53
2022/04/14 01:44:02;;;;;;;10.60;6.40;;;3.30;93.90;;;;;;4157946;28;20287;-54
2022/04/14 01:46:08;;;;;;;12.43;6.63;;;3.30;94.00;;;;;;4157963;28;20293;-55
2022/04/14 01:48:09;;;;;;;14.50;7.37;;;3.30;94.50;;;;;;4159028;28;20324;-57
2022/04/14 01:50:13;;;;;;;13.47;7.57;;;3.20;94.50;;;;;;4158904;28;20278;-56
2022/04/14 01:52:14;;;;;;;14.20;6.50;;;3.20;94.90;;;;;;4159134;28;20290;-57
2022/04/14 01:54:15;;;;;;;16.70;7.63;;;3.10;95.40;;;;;;4153615;28;20286;-60
2022/04/14 01:56:18;;;;;;;14.00;7.10;;;3.00;95.50;;;;;;4143450;28;20318;-56
2022/04/14 01:58:19;;;;;;;16.83;7.20;;;3.00;95.70;;;;;;4142717;28;20645;-54
2022/04/14 02:00:21;;;;;;;14.00;7.17;;;2.90;96.10;;;;;;4142779;28;20736;-56
2022/04/14 02:02:22;;;;;;;14.33;7.30;;;2.90;96.50;;;;;;4142664;28;20780;-56
2022/04/14 02:04:23;;;;;;;13.80;7.47;;;2.80;96.80;;;;;;4141502;28;20275;-56
2022/04/14 02:06:24;;;;;;;15.00;6.60;;;2.70;97.00;;;;;;4158445;28;20352;-56
2022/04/14 02:08:26;;;;;;;19.30;6.90;;;2.70;97.90;;;;;;4157075;28;20278;-58
2022/04/14 02:10:28;;;;;;;13.07;6.97;;;2.60;97.80;;;;;;4143001;28;20291;-62
2022/04/14 02:12:32;;;;;;;15.50;7.30;;;2.60;98.30;;;;;;4141346;28;20948;-53
2022/04/14 02:14:33;;;;;;;17.50;7.63;;;2.60;98.30;;;;;;4144446;28;20624;-55
2022/04/14 02:16:34;;;;;;;14.70;6.67;;;2.50;98.60;;;;;;4142481;28;20811;-57
2022/04/14 02:18:35;;;;;;;15.33;8.00;;;2.50;99.40;;;;;;4142530;28;20302;-53
2022/04/14 02:20:37;;;;;;;16.57;7.33;;;2.50;99.90;;;;;;4141768;28;20349;-58
2022/04/14 02:22:42;;;;;;;10.13;5.80;;;2.40;99.90;;;;;;4144437;28;20341;-53
2022/04/14 02:24:43;;;;;;;13.73;6.47;;;2.40;99.90;;;;;;4158986;28;20270;-56
2022/04/14 02:26:44;;;;;;;13.43;6.30;;;2.50;99.90;;;;;;4155031;28;20350;-59
2022/04/14 02:28:47;;;;;;;11.87;6.37;;;2.50;99.90;;;;;;4158437;28;20341;-57
2022/04/14 02:30:48;;;;;;;12.33;5.83;;;2.50;99.90;;;;;;4155638;28;20695;-59
2022/04/14 02:32:49;;;;;;;13.47;6.03;;;2.60;99.90;;;;;;4158762;28;20677;-57
2022/04/14 02:34:50;;;;;;;11.13;5.20;;;2.60;99.90;;;;;;4156006;28;20267;-54
2022/04/14 02:36:52;;;;;;;13.60;5.60;;;2.60;99.90;;;;;;4159220;28;20337;-60
2022/04/14 02:38:53;;;;;;;15.73;5.73;;;2.60;99.90;;;;;;4142616;28;20863;-56
2022/04/14 02:40:54;;;;;;;12.80;5.70;;;2.60;99.90;;;;;;4143090;28;20291;-52
2022/04/14 02:42:57;;;;;;;9.67;5.60;;;2.70;99.90;;;;;;4141551;28;20877;-57
2022/04/14 02:44:58;;;;;;;14.70;6.93;;;2.70;99.90;;;;;;4142132;28;20738;-53
2022/04/14 02:46:59;;;;;;;9.60;5.30;;;2.70;99.90;;;;;;4141713;28;20773;-56
2022/04/14 02:49:00;;;;;;;13.23;5.13;;;2.70;99.90;;;;;;4142535;28;20363;-56
2022/04/14 02:51:01;;;;;;;11.87;5.37;;;2.60;99.90;;;;;;4150868;28;20278;-54
2022/04/14 02:53:02;;;;;;;7.57;5.07;;;2.60;99.90;;;;;;4158602;28;20263;-57
2022/04/14 02:55:04;;;;;;;13.53;5.67;;;2.70;99.90;;;;;;4151663;28;20789;-57
2022/04/14 02:57:09;;;;;;;12.93;6.10;;;2.60;99.90;;;;;;4142522;28;20264;-56
2022/04/14 02:59:10;;;;;;;13.30;5.60;;;2.70;99.90;;;;;;4141861;28;20291;-55
2022/04/14 03:01:11;;;;;;;12.70;5.20;;;2.60;99.90;;;;;;4143264;28;20299;-55
2022/04/14 03:03:12;;;;;;;8.10;4.43;;;2.60;99.90;;;;;;4153897;28;20275;-58
2022/04/14 03:05:13;;;;;;;9.53;4.50;;;2.60;99.90;;;;;;4153126;28;20339;-57
2022/04/14 03:07:15;;;;;;;13.40;5.03;;;2.60;99.90;;;;;;4158520;28;20274;-58
2022/04/14 03:09:16;;;;;;;10.80;5.17;;;2.70;99.90;;;;;;4156857;28;20915;-57
2022/04/14 03:11:17;;;;;;;12.63;5.27;;;2.70;99.90;;;;;;4158269;28;20267;-54
2022/04/14 03:13:20;;;;;;;12.30;5.20;;;2.70;99.90;;;;;;4157097;28;20262;-57
2022/04/14 03:15:21;;;;;;;8.67;3.73;;;2.70;99.90;;;;;;4149958;28;20259;-57
2022/04/14 03:17:22;;;;;;;12.27;4.20;;;2.60;99.90;;;;;;4140314;28;20362;-57
2022/04/14 03:19:24;;;;;;;15.93;5.30;;;2.60;99.90;;;;;;4141839;28;20310;-58
2022/04/14 03:21:26;;;;;;;9.07;5.07;;;2.60;99.90;;;;;;4139552;28;20299;-53
2022/04/14 03:23:27;;;;;;;13.83;6.10;;;2.50;99.90;;;;;;4140965;28;20352;-57
2022/04/14 03:25:28;;;;;;;13.33;4.73;;;2.50;99.90;;;;;;4140943;28;20272;-55
2022/04/14 03:27:29;;;;;;;8.93;4.87;;;2.40;99.90;;;;;;4141338;28;20724;-50
2022/04/14 03:29:32;;;;;;;17.03;5.63;;;2.40;99.90;;;;;;4141442;28;20291;-51
2022/04/14 03:31:33;;;;;;;11.67;5.93;;;2.40;99.90;;;;;;4140520;28;20349;-55
2022/04/14 03:33:34;;;;;;;12.67;4.97;;;2.40;99.90;;;;;;4141430;28;20790;-53
2022/04/14 03:35:36;;;;;;;10.40;5.43;;;2.30;99.90;;;;;;4140404;28;20271;-62
2022/04/14 03:37:37;;;;;;;10.10;5.20;;;2.30;99.90;;;;;;4141313;28;20326;-56
2022/04/14 03:39:38;;;;;;;10.77;5.13;;;2.20;99.90;;;;;;4140529;28;20313;-53
2022/04/14 03:41:39;;;;;;;15.00;5.43;;;2.20;99.90;;;;;;4141870;28;21319;-56
2022/04/14 03:43:40;;;;;;;15.53;6.63;;;2.20;99.90;;;;;;4139763;28;20337;-58
2022/04/14 03:45:42;;;;;;;13.33;5.40;;;2.20;99.90;;;;;;4141681;28;20267;-57
2022/04/14 03:47:43;;;;;;;13.07;5.73;;;2.20;99.90;;;;;;4139911;28;20275;-59
2022/04/14 03:49:44;;;;;;;16.80;6.83;;;2.20;99.90;;;;;;4152349;28;20282;-56
2022/04/14 03:51:45;;;;;;;13.43;6.87;;;2.20;99.90;;;;;;4139900;28;20747;-55
2022/04/14 03:53:46;;;;;;;12.93;6.30;;;2.20;99.90;;;;;;4141633;28;20267;-57
2022/04/14 03:55:48;;;;;;;11.87;6.17;;;2.20;99.90;;;;;;4140439;28;20675;-61
2022/04/14 03:57:49;;;;;;;13.80;6.10;;;2.30;99.90;;;;;;4140511;28;20330;-63
2022/04/14 03:59:50;;;;;;;17.13;6.43;;;2.30;99.90;;;;;;4140106;28;20306;-58
2022/04/14 04:01:51;;;;;;;12.87;5.73;;;2.40;99.90;;;;;;4140052;28;20291;-54
2022/04/14 04:03:52;;;;;;;14.30;5.83;;;2.60;99.90;;;;;;4140984;28;20333;-56
2022/04/14 04:05:54;;;;;;;16.17;6.70;;;2.80;99.90;;;;;;4138782;28;20326;-58
2022/04/14 04:07:55;;;;;;;21.27;5.50;;;3.10;99.90;;;;;;4140942;28;20263;-56
2022/04/14 04:09:56;;;;;;;13.77;5.80;;;3.30;99.90;;;;;;4141129;28;20279;-60
2022/04/14 04:11:58;;;;;;;10.17;5.53;;;3.50;99.90;;;;;;4144068;28;20349;-58
2022/04/14 04:13:59;;;;;;;10.50;4.87;;;3.70;99.90;;;;;;4139697;28;20275;-60
2022/04/14 04:16:00;;;;;;;12.63;5.77;;;3.90;99.90;;;;;;4141293;28;20267;-59
2022/04/14 04:18:02;;;;;;;19.43;6.57;;;4.20;99.90;;;;;;4141644;28;20286;-58
2022/04/14 04:20:03;;;;;;;14.00;7.13;;;4.50;99.90;;;;;;4156915;28;20654;-59
2022/04/14 04:22:06;;;;;;;17.33;7.50;;;4.70;99.90;;;;;;4155611;28;20875;-60
2022/04/14 04:24:07;;;;;;;18.83;8.00;;;4.90;99.70;;;;;;4157344;28;20391;-60
2022/04/14 04:26:08;;;;;;;31.20;8.97;;;5.20;99.20;;;;;;4155498;28;20247;-56
2022/04/14 04:28:09;;;;;;;19.47;8.00;;;5.50;98.70;;;;;;4153565;28;20275;-62
2022/04/14 04:30:11;;;;;;;17.17;8.40;;;5.80;98.00;;;;;;4154211;28;20694;-60
2022/04/14 04:32:12;;;;;;;23.33;10.17;;;5.90;97.50;;;;;;4155895;28;20836;-60
2022/04/14 04:34:13;;;;;;;20.03;8.63;;;6.20;97.10;;;;;;4157031;28;20329;-57
2022/04/14 04:36:14;;;;;;;27.57;9.07;;;6.50;96.70;;;;;;4153518;28;20271;-55
2022/04/14 04:38:16;;;;;;;19.13;7.80;;;6.70;96.10;;;;;;4155327;28;20340;-58
2022/04/14 04:40:18;;;;;;;21.23;8.13;;;7.00;95.60;;;;;;4154056;28;20287;-61
2022/04/14 04:42:19;;;;;;;23.63;9.47;;;7.20;95.10;;;;;;4149790;28;20756;-60
2022/04/14 04:44:20;;;;;;;17.53;8.63;;;7.40;94.50;;;;;;4135646;28;20280;-62
2022/04/14 04:46:22;;;;;;;15.00;7.90;;;7.90;94.30;;;;;;4146368;28;20295;-58
2022/04/14 04:48:23;;;;;;;16.57;8.43;;;8.30;93.50;;;;;;4139338;28;20357;-60
2022/04/14 04:50:24;;;;;;;21.43;8.77;;;8.80;92.70;;;;;;4145451;28;20321;-55
2022/04/14 04:52:25;;;;;;;21.37;9.03;;;9.20;91.80;;;;;;4132318;28;20116;-64
2022/04/14 04:54:26;;;;;;;18.93;8.03;;;9.60;91.20;;;;;;4143099;28;20104;-57
2022/04/14 04:56:28;;;;;;;21.57;9.00;;;10.10;90.30;;;;;;4140047;28;20035;-66
2022/04/14 04:58:29;;;;;;;15.60;8.20;;;10.40;89.10;;;;;;4141077;28;20046;-62
2022/04/14 05:00:30;;;;;;;23.73;8.50;;;10.90;87.40;;;;;;4142708;28;20506;-59
2022/04/14 05:02:31;;;;;;;14.87;8.67;;;11.30;86.10;;;;;;4141881;28;20115;-60
2022/04/14 05:04:32;;;;;;;22.00;9.13;;;11.70;84.60;;;;;;4143425;28;20042;-60
2022/04/14 05:06:34;;;;;;;19.87;8.83;;;12.00;82.20;;;;;;4143054;28;20060;-60
2022/04/14 05:08:35;;;;;;;28.67;10.30;;;12.30;81.20;;;;;;4143488;28;20084;-60
2022/04/14 05:10:36;;;;;;;17.27;8.67;;;12.50;79.70;;;;;;4142226;28;20084;-59
2022/04/14 05:12:37;;;;;;;18.67;8.63;;;12.70;78.40;;;;;;4143745;28;20034;-60
2022/04/14 05:14:38;;;;;;;23.57;8.93;;;13.00;77.50;;;;;;4142051;28;20038;-60
2022/04/14 05:16:39;;;;;;;16.27;8.10;;;12.80;75.80;;;;;;4143469;28;20081;-59
2022/04/14 05:18:41;;;;;;;23.77;8.73;;;12.40;75.10;;;;;;4141892;28;20058;-60
2022/04/14 05:20:42;;;;;;;17.57;8.47;;;12.10;75.70;;;;;;4143413;28;20088;-63
2022/04/14 05:22:43;;;;;;;18.33;9.43;;;12.40;75.40;;;;;;4142349;28;20454;-65
2022/04/14 05:24:44;;;;;;;20.37;8.83;;;12.90;74.60;;;;;;4143812;28;20410;-59
2022/04/14 05:26:45;;;;;;;24.90;9.10;;;13.00;73.40;;;;;;4141461;28;20481;-60
2022/04/14 05:28:46;;;;;;;26.30;8.40;;;13.30;73.00;;;;;;4142852;28;20042;-65
2022/04/14 05:30:48;;;;;;;17.13;7.47;;;13.60;72.10;;;;;;4142910;28;20084;-60
2022/04/14 05:32:50;;;;;;;20.77;7.80;;;13.70;71.50;;;;;;4142143;28;20026;-63
2022/04/14 05:34:51;;;;;;;23.83;7.27;;;14.10;70.60;;;;;;4142660;28;20417;-60
2022/04/14 05:36:52;;;;;;;17.97;7.00;;;14.30;69.20;;;;;;4142291;28;20034;-61
2022/04/14 05:38:53;;;;;;;26.67;6.77;;;14.30;68.60;;;;;;4143339;28;20038;-60
2022/04/14 05:40:55;;;;;;;16.90;7.27;;;14.50;68.20;;;;;;4141541;28;20476;-60
2022/04/14 05:42:56;;;;;;;10.80;5.80;;;15.00;67.20;;;;;;4141226;28;20101;-58
2022/04/14 05:45:01;;;;;;;14.53;5.83;;;15.00;66.10;;;;;;4141893;28;20080;-58
2022/04/14 05:47:03;;;;;;;15.90;7.73;;;15.00;65.30;;;;;;4143586;28;20456;-57
2022/04/14 05:49:04;;;;;;;24.43;8.63;;;14.90;65.40;;;;;;4141613;28;20037;-59
2022/04/14 05:51:05;;;;;;;18.53;6.73;;;14.70;65.30;;;;;;4142522;28;20083;-60
2022/04/14 05:53:07;;;;;;;18.90;7.03;;;15.00;65.20;;;;;;4141651;28;20034;-58
2022/04/14 05:55:09;;;;;;;19.43;6.93;;;15.50;64.10;;;;;;4142953;28;20034;-60
2022/04/14 05:57:10;;;;;;;27.97;7.50;;;15.50;63.10;;;;;;4141006;28;20041;-60
2022/04/14 05:59:16;;;;;;;20.83;7.70;;;15.30;63.00;;;;;;4142616;28;20042;-60
2022/04/14 06:01:17;;;;;;;20.87;7.40;;;14.50;62.80;;;;;;4140674;28;20489;-57
2022/04/14 06:03:19;;;;;;;23.03;7.40;;;14.10;63.80;;;;;;4140743;28;20026;-60
2022/04/14 06:05:21;;;;;;;13.87;6.63;;;13.60;64.00;;;;;;4142294;28;20050;-61
2022/04/14 06:07:22;;;;;;;18.63;6.57;;;13.70;64.20;;;;;;4141155;28;20038;-56
2022/04/14 06:09:23;;;;;;;17.23;7.53;;;13.50;64.20;;;;;;4142359;28;20080;-61
2022/04/14 06:11:25;;;;;;;21.27;7.20;;;13.70;64.40;;;;;;4141603;28;20038;-60
2022/04/14 06:13:26;;;;;;;13.10;7.00;;;14.20;63.50;;;;;;4141425;28;20058;-59
2022/04/14 06:15:29;;;;;;;16.00;6.13;;;14.20;63.30;;;;;;4141558;28;20077;-64
2022/04/14 06:17:30;;;;;;;23.90;6.73;;;14.60;63.00;;;;;;4142030;28;20046;-59
2022/04/14 06:19:31;;;;;;;16.20;6.30;;;14.80;62.20;;;;;;4142190;28;20835;-60
2022/04/14 06:21:32;;;;;;;15.40;6.10;;;15.10;62.00;;;;;;4142578;28;20141;-59
2022/04/14 06:23:33;;;;;;;20.53;7.17;;;15.50;61.00;;;;;;4139830;28;20120;-59
2022/04/14 06:25:34;;;;;;;15.37;6.77;;;15.80;60.70;;;;;;4143498;28;20042;-62
2022/04/14 06:27:35;;;;;;;17.77;7.43;;;15.30;60.80;;;;;;4141391;28;20096;-60
2022/04/14 06:29:36;;;;;;;21.83;7.63;;;14.50;61.60;;;;;;4142303;28;20092;-60
2022/04/14 06:31:37;;;;;;;15.53;6.10;;;13.80;62.50;;;;;;4141206;28;20435;-58
2022/04/14 06:33:39;;;;;;;21.70;6.17;;;13.10;63.70;;;;;;4141360;28;20038;-61
2022/04/14 06:35:40;;;;;;;19.80;6.80;;;12.60;64.70;;;;;;4142053;28;20026;-60
2022/04/14 06:37:41;;;;;;;11.20;5.70;;;12.10;65.90;;;;;;4141510;28;20395;-60
2022/04/14 06:39:42;;;;;;;16.50;6.47;;;12.10;65.70;;;;;;4141982;28;20080;-58
2022/04/14 06:41:43;;;;;;;16.80;6.53;;;12.10;66.30;;;;;;4140988;28;20049;-57
2022/04/14 06:43:49;;;;;;;14.17;7.20;;;11.90;66.80;;;;;;4142188;28;20038;-59
2022/04/14 06:45:50;;;;;;;10.97;6.23;;;11.60;67.70;;;;;;4140205;28;20033;-64
2022/04/14 06:47:52;;;;;;;11.97;6.10;;;11.60;68.00;;;;;;4141983;28;20038;-59
2022/04/14 06:49:54;;;;;;;11.37;6.60;;;11.40;68.20;;;;;;4140763;28;20445;-60
2022/04/14 06:51:55;;;;;;;13.03;6.60;;;11.30;69.30;;;;;;4142194;28;20045;-59
2022/04/14 06:53:56;;;;;;;14.67;7.13;;;11.50;69.80;;;;;;4140928;28;20042;-58
2022/04/14 06:55:57;;;;;;;14.37;6.57;;;11.70;70.80;;;;;;4142238;28;20367;-61
2022/04/14 06:57:59;;;;;;;18.27;7.37;;;11.50;70.20;;;;;;4140806;28;20026;-61
2022/04/14 07:00:00;;;;;;;14.93;7.60;;;11.40;70.90;;;;;;4141396;28;20030;-62
2022/04/14 07:02:01;;;;;;;11.47;6.67;;;11.40;71.30;;;;;;4140529;28;20042;-57
2022/04/14 07:04:02;;;;;;;10.63;6.27;;;11.20;71.60;;;;;;4139689;28;20037;-61
2022/04/14 07:06:03;;;;;;;25.07;7.93;;;11.20;71.50;;;;;;4141176;28;20042;-60
2022/04/14 07:08:05;;;;;;;10.33;5.43;;;11.40;71.30;;;;;;4140981;28;20026;-63
2022/04/14 07:10:06;;;;;;;17.97;7.40;;;11.50;71.10;;;;;;4140499;28;20076;-58
2022/04/14 07:12:08;;;;;;;19.13;7.07;;;11.40;71.40;;;;;;4140349;28;20576;-63
2022/04/14 07:14:09;;;;;;;21.27;7.70;;;11.70;71.10;;;;;;4141258;28;20030;-61
2022/04/14 07:16:10;;;;;;;11.63;6.40;;;11.90;70.80;;;;;;4141298;28;20104;-60
2022/04/14 07:18:12;;;;;;;9.57;5.73;;;11.80;70.70;;;;;;4141210;28;20096;-58
2022/04/14 07:20:13;;;;;;;19.13;6.07;;;12.00;70.60;;;;;;4140227;28;20611;-59
2022/04/14 07:22:20;;;;;;;14.23;5.43;;;12.20;70.00;;;;;;4141351;28;20088;-58
2022/04/14 07:24:22;;;;;;;10.00;5.03;;;12.30;69.50;;;;;;4141405;28;20109;-59
2022/04/14 07:26:23;;;;;;;13.17;5.33;;;12.30;69.70;;;;;;4140655;28;20100;-61
2022/04/14 07:28:24;;;;;;;7.10;4.93;;;12.30;69.10;;;;;;4140451;28;20044;-58
2022/04/14 07:30:26;;;;;;;7.83;4.50;;;12.30;68.70;;;;;;4141501;28;20042;-56
2022/04/14 07:32:37;;;;;;;9.50;4.97;;;12.50;68.40;;;;;;4139901;28;20041;-56
2022/04/14 07:34:38;;;;;;;;;;;12.60;67.70;;;;;;4141586;28;20425;-61
2022/04/14 07:36:39;;;;;;;8.03;4.40;;;12.60;66.40;;;;;;4140353;28;19980;-61
2022/04/14 07:38:40;;;;;;;9.90;3.90;;;12.70;66.40;;;;;;4141279;28;20045;-60
2022/04/14 07:40:41;;;;;;;9.67;4.07;;;12.70;65.50;;;;;;4140361;28;20038;-57
2022/04/14 07:42:44;;;;;;;8.33;4.37;;;12.50;65.20;;;;;;4140301;28;20053;-60
2022/04/14 07:44:45;;;;;;;7.03;3.90;;;12.40;65.10;;;;;;4141177;28;20112;-59
2022/04/14 07:46:47;;;;;;;10.37;4.07;;;12.40;64.70;;;;;;4138199;28;20034;-59
2022/04/14 07:48:48;;;;;;;8.13;3.93;;;12.30;64.10;;;;;;4141273;28;20100;-60
2022/04/14 07:50:50;;;;;;;7.37;3.10;;;12.30;63.40;;;;;;4140016;28;20430;-59
2022/04/14 07:52:55;;;;;;;7.87;3.40;;;12.40;63.60;;;;;;4142174;28;20061;-60
2022/04/14 07:54:56;;;;;;;7.63;4.10;;;12.50;63.10;;;;;;4141169;28;20375;-60
2022/04/14 07:56:59;;;;;;;5.60;3.83;;;12.60;63.70;;;;;;4141119;28;20454;-58
2022/04/14 07:59:00;;;;;;;8.80;3.33;;;12.80;63.40;;;;;;4139593;28;20033;-61
2022/04/14 08:01:01;;;;;;;7.77;3.27;;;12.90;63.00;;;;;;4141218;28;20084;-59
2022/04/14 08:03:04;;;;;;;7.77;4.23;;;12.90;62.40;;;;;;4138205;28;20054;-62
2022/04/14 08:05:05;;;;;;;10.37;4.23;;;12.90;63.00;;;;;;4140976;28;20086;-62
2022/04/14 08:07:07;;;;;;;6.83;4.57;;;13.00;63.10;;;;;;4139785;28;20033;-60
2022/04/14 08:09:08;;;;;;;6.53;4.57;;;13.20;63.10;;;;;;4140547;28;20072;-59
2022/04/14 08:11:10;;;;;;;9.80;3.80;;;13.30;63.10;;;;;;4140710;28;20092;-57
2022/04/14 08:13:12;;;;;;;5.83;3.63;;;13.40;62.50;;;;;;4140059;28;20026;-59
2022/04/14 08:15:14;;;;;;;10.27;4.33;;;13.60;62.20;;;;;;4140391;28;20034;-61
2022/04/14 08:17:15;;;;;;;9.77;4.37;;;13.70;62.10;;;;;;4139568;28;20045;-57
2022/04/14 08:19:16;;;;;;;5.23;3.23;;;13.70;61.80;;;;;;4140902;28;20029;-59
2022/04/14 08:21:17;;;;;;;7.43;3.83;;;13.70;61.60;;;;;;4140520;28;20037;-59
2022/04/14 08:23:18;;;;;;;6.17;3.57;;;13.60;61.80;;;;;;4140696;28;20115;-63
2022/04/14 08:25:21;;;;;;;8.80;3.63;;;13.70;62.30;;;;;;4140088;28;20030;-59
2022/04/14 08:27:23;;;;;;;6.97;3.30;;;14.00;62.10;;;;;;4140558;28;20410;-60
2022/04/14 08:29:24;;;;;;;9.93;3.60;;;14.20;61.70;;;;;;4140366;28;20120;-62
2022/04/14 08:31:27;;;;;;;4.70;2.63;;;14.40;60.30;;;;;;4140984;28;20029;-63
2022/04/14 08:33:30;;;;;;;7.03;2.57;;;14.60;60.00;;;;;;4139496;28;20437;-60
2022/04/14 08:35:32;;;;;;;8.00;3.77;;;14.80;59.30;;;;;;4140854;28;20607;-61
2022/04/14 08:37:34;;;;;;;6.23;3.60;;;15.00;59.50;;;;;;4140361;28;20387;-59
2022/04/14 08:39:35;;;;;;;8.13;3.67;;;15.10;59.20;;;;;;4140725;28;20037;-58
2022/04/14 08:41:39;;;;;;;5.43;3.63;;;15.00;59.30;;;;;;4140570;28;20088;-61
2022/04/14 08:43:51;;;;;;;5.23;3.23;;;15.00;59.20;;;;;;4140204;28;20088;-60
2022/04/14 08:45:53;;;;;;;7.53;3.73;;;14.90;59.60;;;;;;4139546;28;20320;-59
2022/04/14 08:47:55;;;;;;;8.93;3.70;;;14.90;59.70;;;;;;4139508;28;20096;-60
2022/04/14 08:49:57;;;;;;;7.63;2.57;;;15.00;59.60;;;;;;4140079;28;20092;-59
2022/04/14 08:51:59;;;;;;;8.07;3.33;;;15.30;59.80;;;;;;4139711;28;20478;-66
2022/04/14 08:54:01;;;;;;;9.87;3.80;;;15.90;59.80;;;;;;4140917;28;20037;-59
2022/04/14 08:56:05;;;;;;;12.47;3.63;;;16.10;59.00;;;;;;4139407;28;20065;-63
2022/04/14 08:58:13;;;;;;;8.33;3.50;;;16.00;58.70;;;;;;4141354;28;20112;-60
2022/04/14 09:00:16;;;;;;;9.03;3.23;;;16.10;58.40;;;;;;4140239;28;20034;-61
2022/04/14 09:02:21;;;;;;;9.17;3.50;;;16.30;58.20;;;;;;4140438;28;20034;-61
2022/04/14 09:04:22;;;;;;;4.73;3.03;;;16.30;58.00;;;;;;4137986;28;20147;-59
2022/04/14 09:06:27;;;;;;;10.30;3.30;;;16.50;57.90;;;;;;4141341;28;20093;-59
2022/04/14 09:08:28;;;;;;;6.40;3.35;;;16.40;57.70;;;;;;4140122;28;20050;-59
2022/04/14 09:10:29;;;;;;;7.47;3.33;;;16.50;57.90;;;;;;4140649;28;20033;-60
2022/04/14 09:12:30;;;;;;;7.95;3.17;;;16.40;57.60;;;;;;4138820;28;20084;-59
2022/04/14 09:14:35;;;;;;;9.67;3.37;;;16.20;56.90;;;;;;4140002;28;20081;-61
2022/04/14 09:16:37;;;;;;;6.00;3.13;;;16.30;57.30;;;;;;4139144;28;20077;-59
2022/04/14 09:18:38;;;;;;;5.60;2.90;;;16.40;57.00;;;;;;4139912;28;20054;-60
2022/04/14 09:20:42;;;;;;;6.57;3.00;;;16.40;56.70;;;;;;4139132;28;20447;-61
2022/04/14 09:22:43;;;;;;;4.90;2.85;;;16.50;56.20;;;;;;4141103;28;20038;-60
2022/04/14 09:24:55;;;;;;;7.65;3.30;;;16.60;56.10;;;;;;4139598;28;20038;-60
2022/04/14 09:26:57;;;;;;;4.85;2.63;;;16.70;55.20;;;;;;4139926;28;20509;-60
2022/04/14 09:29:10;;;;;;;4.88;2.75;;;16.80;55.60;;;;;;4139555;28;20038;-63
2022/04/14 09:31:11;;;;;;;4.53;2.80;;;16.70;54.90;;;;;;4139405;28;20085;-61
2022/04/14 09:33:16;;;;;;;7.15;2.20;;;16.50;54.60;;;;;;4139427;28;20022;-59
2022/04/14 09:35:19;;;;;;;3.65;2.13;;;16.40;54.10;;;;;;4138681;28;20117;-58
2022/04/14 09:37:23;;;;;;;5.13;2.42;;;16.50;53.40;;;;;;4142794;28;20029;-61
2022/04/14 09:39:24;;;;;;;7.20;2.38;;;16.50;52.80;;;;;;4142008;28;20060;-58
2022/04/14 09:41:39;;;;;;;3.95;2.05;;;16.70;53.30;;;;;;4142583;28;20141;-60
2022/04/14 09:43:56;;;;;;;9.05;2.58;;;16.80;52.30;;;;;;4141784;28;20033;-58
2022/04/14 09:45:57;;;;;;;4.72;2.80;;;16.80;52.70;;;;;;4141965;28;20492;-58
2022/04/14 09:48:04;;;;;;;6.63;2.50;;;16.80;52.90;;;;;;4141179;28;20161;-61
2022/04/14 09:50:07;;;;;;;5.78;2.53;;;16.70;52.40;;;;;;4142549;28;20037;-60
2022/04/14 09:52:08;;;;;;;5.70;2.70;;;16.70;52.60;;;;;;4141739;28;20114;-60
2022/04/14 09:54:18;;;;;;;8.32;2.65;;;16.60;52.60;;;;;;4142538;28;20084;-60
2022/04/14 09:56:19;;;;;;;5.57;3.33;;;16.60;52.30;;;;;;4143074;28;20568;-63
2022/04/14 09:58:23;;;;;;;6.00;2.35;;;16.60;52.40;;;;;;4141999;28;20080;-60
2022/04/14 10:00:44;;;;;;;6.43;2.40;;;16.80;52.20;;;;;;4141455;28;20033;-57
2022/04/14 10:03:14;;;;;;;5.80;2.55;;;16.80;51.20;;;;;;4143212;28;20049;-56
2022/04/14 10:05:34;;;;;;;5.65;2.50;;;17.00;51.60;;;;;;4141501;28;20026;-59
2022/04/14 10:07:35;;;;;;;5.32;2.22;;;17.40;51.70;;;;;;4142127;28;20109;-61
2022/04/14 10:09:41;;;;;;;3.83;2.20;;;17.60;50.80;;;;;;4141463;28;20033;-60
2022/04/14 10:11:43;;;;;;;6.80;2.25;;;17.60;50.80;;;;;;4142423;28;20083;-60
2022/04/14 10:13:44;;;;;;;7.28;2.53;;;17.70;50.30;;;;;;4140890;28;20022;-59
2022/04/14 10:15:48;;;;;;;4.72;2.42;;;17.60;49.90;;;;;;4143028;28;20041;-59
2022/04/14 10:17:50;;;;;;;6.55;2.08;;;17.30;49.30;;;;;;4141110;28;20045;-61
2022/04/14 10:19:52;;;;;;;3.78;1.67;;;17.10;49.20;;;;;;4142541;28;20045;-59
2022/04/14 10:21:55;;;;;;;7.93;2.28;;;17.20;49.20;;;;;;4141137;28;20628;-59
2022/04/14 10:23:58;;;;;;;8.15;1.67;;;17.20;48.90;;;;;;4142223;28;20608;-58
2022/04/14 10:26:00;;;;;;;2.50;1.35;;;17.10;47.80;;;;;;4141478;28;20873;-59
2022/04/14 10:28:01;;;;;;;2.30;1.02;;;17.10;46.50;;;;;;4142625;28;20046;-58
2022/04/14 10:30:03;;;;;;;3.78;1.38;;;17.10;45.30;;;;;;4141925;28;20042;-60
2022/04/14 10:32:06;;;;;;;3.78;1.30;;;17.20;45.60;;;;;;4143157;28;20042;-59
2022/04/14 10:34:08;;;;;;;3.25;1.75;;;17.30;45.50;;;;;;4141081;28;20549;-62